Time;durP1;ratioP1;P1;durP2;ratioP2;P2;SDS_P1;SDS_P2;PMS_P1;PMS_P2;Temp;Humidity;BMP_temperature;BMP_pressure;BME280_temperature;BME280_humidity;BME280_pressure;Samples;Min_cycle;Max_cycle;Signal;HPM_P1;HPM_P2
2022/12/03 00:02:03;;;;;;;;;;;;;;;;;;6207346;22;19935;-89
2022/12/03 00:04:29;;;;;;;;;;;;;;;;;;6200131;22;20028;-88
2022/12/03 00:06:55;;;;;;;;;;;;;;;;;;6230099;22;19927;-88
2022/12/03 00:09:21;;;;;;;;;;;;;;;;;;6260520;22;19926;-90
2022/12/03 00:11:47;;;;;;;;;;;;;;;;;;6202035;22;20405;-88
2022/12/03 00:14:13;;;;;;;;;;;;;;;;;;6207076;22;19930;-88
2022/12/03 00:16:39;;;;;;;;;;;;;;;;;;6228224;22;20289;-89
2022/12/03 00:19:06;;;;;;;;;;;;;;;;;;6233250;22;20239;-88
2022/12/03 00:21:32;;;;;;;;;;;;;;;;;;6227896;22;19919;-88
2022/12/03 00:23:58;;;;;;;;;;;;;;;;;;6233936;22;19926;-88
2022/12/03 00:26:24;;;;;;;;;;;;;;;;;;6233768;22;20001;-88
2022/12/03 00:28:50;;;;;;;;;;;;;;;;;;6206839;22;19915;-88
2022/12/03 00:31:16;;;;;;;;;;;;;;;;;;6261612;22;19952;-88
2022/12/03 00:33:42;;;;;;;;;;;;;;;;;;6230852;22;19922;-88
2022/12/03 00:36:08;;;;;;;;;;;;;;;;;;6209191;22;20248;-88
2022/12/03 00:38:34;;;;;;;;;;;;;;;;;;6229226;22;19927;-89
2022/12/03 00:41:00;;;;;;;;;;;;;;;;;;6261187;22;20352;-88
2022/12/03 00:43:26;;;;;;;;;;;;;;;;;;6232823;22;19927;-88
2022/12/03 00:45:52;;;;;;;;;;;;;;;;;;6230104;22;19927;-88
2022/12/03 00:48:18;;;;;;;;;;;;;;;;;;6236856;22;20367;-88
2022/12/03 00:50:43;;;;;;;;;;;;;;;;;;6233433;22;19919;-88
2022/12/03 00:53:09;;;;;;;;;;;;;;;;;;6236301;22;19919;-88
2022/12/03 00:55:35;;;;;;;;;;;;;;;;;;6233383;22;19926;-88
2022/12/03 00:58:01;;;;;;;;;;;;;;;;;;6236002;22;19963;-88
2022/12/03 01:00:30;;;;;;;;;;;;;;;;;;6234248;22;19926;-88
2022/12/03 01:02:56;;;;;;;;;;;;;;;;;;6210436;22;20377;-88
2022/12/03 01:05:22;;;;;;;;;;;;;;;;;;6232170;22;20021;-88
2022/12/03 01:07:48;;;;;;;;;;;;;;;;;;6207984;22;20391;-89
2022/12/03 01:10:14;;;;;;;;;;;;;;;;;;6212226;22;20423;-88
2022/12/03 01:12:40;;;;;;;;;;;;;;;;;;6230785;22;19919;-88
2022/12/03 01:15:06;;;;;;;;;;;;;;;;;;6235501;22;19919;-88
2022/12/03 01:17:32;;;;;;;;;;;;;;;;;;6206915;22;19926;-88
2022/12/03 01:19:58;;;;;;;;;;;;;;;;;;6209562;22;19926;-88
2022/12/03 01:22:24;;;;;;;;;;;;;;;;;;6235513;22;19939;-88
2022/12/03 01:24:50;;;;;;;;;;;;;;;;;;6231282;22;19975;-88
2022/12/03 01:27:16;;;;;;;;;;;;;;;;;;6233670;22;19926;-87
2022/12/03 01:29:41;;;;;;;;;;;;;;;;;;6209151;22;19937;-88
2022/12/03 01:32:18;;;;;;;;;;;;;;;;;;6210355;22;19922;-88
2022/12/03 01:34:44;;;;;;;;;;;;;;;;;;6233468;22;19973;-88
2022/12/03 01:37:10;;;;;;;;;;;;;;;;;;6235630;22;19915;-88
2022/12/03 01:39:35;;;;;;;;;;;;;;;;;;6232689;22;19919;-88
2022/12/03 01:42:01;;;;;;;;;;;;;;;;;;6206761;22;19957;-88
2022/12/03 01:44:27;;;;;;;;;;;;;;;;;;6208064;22;20363;-88
2022/12/03 01:46:53;;;;;;;;;;;;;;;;;;6236253;22;19919;-88
2022/12/03 01:49:19;;;;;;;;;;;;;;;;;;6234874;22;19922;-88
2022/12/03 01:51:45;;;;;;;;;;;;;;;;;;6209990;22;19919;-88
2022/12/03 01:54:11;;;;;;;;;;;;;;;;;;6234895;22;20339;-88
2022/12/03 01:56:37;;;;;;;;;;;;;;;;;;6208897;22;19919;-89
2022/12/03 01:59:03;;;;;;;;;;;;;;;;;;6207853;22;19929;-88
2022/12/03 02:01:29;;;;;;;;;;;;;;;;;;6229034;22;19918;-88
2022/12/03 02:03:55;;;;;;;;;;;;;;;;;;6209891;22;19919;-88
2022/12/03 02:06:21;;;;;;;;;;;;;;;;;;6235021;22;20238;-88
2022/12/03 02:08:47;;;;;;;;;;;;;;;;;;6232655;22;20369;-88
2022/12/03 02:11:13;;;;;;;;;;;;;;;;;;6209301;22;19923;-88
2022/12/03 02:13:39;;;;;;;;;;;;;;;;;;6232105;22;19925;-88
2022/12/03 02:16:05;;;;;;;;;;;;;;;;;;6235801;22;19993;-88
2022/12/03 02:18:31;;;;;;;;;;;;;;;;;;6234396;22;19986;-88
2022/12/03 02:20:57;;;;;;;;;;;;;;;;;;6210403;22;19919;-89
2022/12/03 02:23:22;;;;;;;;;;;;;;;;;;6233013;22;19965;-88
2022/12/03 02:25:48;;;;;;;;;;;;;;;;;;6206991;22;19923;-87
2022/12/03 02:28:14;;;;;;;;;;;;;;;;;;6209521;22;20232;-88
2022/12/03 02:30:40;;;;;;;;;;;;;;;;;;6230865;22;20211;-87
2022/12/03 02:33:06;;;;;;;;;;;;;;;;;;6208345;22;20385;-88
2022/12/03 02:35:32;;;;;;;;;;;;;;;;;;6207472;22;20340;-88
2022/12/03 02:37:59;;;;;;;;;;;;;;;;;;6234549;22;19919;-88
2022/12/03 02:40:24;;;;;;;;;;;;;;;;;;6234546;22;19919;-88
2022/12/03 02:42:50;;;;;;;;;;;;;;;;;;6205769;22;19922;-87
2022/12/03 02:45:16;;;;;;;;;;;;;;;;;;6209711;22;19919;-87
2022/12/03 02:47:42;;;;;;;;;;;;;;;;;;6206799;22;19923;-87
2022/12/03 02:50:08;;;;;;;;;;;;;;;;;;6232600;22;19919;-88
2022/12/03 02:52:34;;;;;;;;;;;;;;;;;;6231462;22;19965;-88
2022/12/03 02:55:00;;;;;;;;;;;;;;;;;;6231996;22;19919;-87
2022/12/03 02:57:26;;;;;;;;;;;;;;;;;;6210337;22;19923;-88
2022/12/03 02:59:52;;;;;;;;;;;;;;;;;;6208167;22;19919;-88
2022/12/03 03:02:18;;;;;;;;;;;;;;;;;;6209914;22;19968;-88
2022/12/03 03:04:44;;;;;;;;;;;;;;;;;;6206225;22;19919;-88
2022/12/03 03:07:10;;;;;;;;;;;;;;;;;;6233382;22;19965;-88
2022/12/03 03:09:36;;;;;;;;;;;;;;;;;;6204267;22;20276;-87
2022/12/03 03:12:02;;;;;;;;;;;;;;;;;;6233520;22;20292;-88
2022/12/03 03:14:28;;;;;;;;;;;;;;;;;;6207054;22;19946;-88
2022/12/03 03:16:57;;;;;;;;;;;;;;;;;;6208347;22;20412;-88
2022/12/03 03:19:23;;;;;;;;;;;;;;;;;;6233763;22;19957;-87
2022/12/03 03:21:49;;;;;;;;;;;;;;;;;;6205285;22;19974;-87
2022/12/03 03:24:15;;;;;;;;;;;;;;;;;;6235885;22;19958;-87
2022/12/03 03:26:41;;;;;;;;;;;;;;;;;;6230276;22;19970;-87
2022/12/03 03:29:07;;;;;;;;;;;;;;;;;;6208394;22;19931;-87
2022/12/03 03:31:33;;;;;;;;;;;;;;;;;;6205160;22;19919;-87
2022/12/03 03:33:59;;;;;;;;;;;;;;;;;;6209440;22;20355;-87
2022/12/03 03:36:25;;;;;;;;;;;;;;;;;;6233860;22;19926;-88
2022/12/03 03:38:51;;;;;;;;;;;;;;;;;;6205433;22;19923;-87
2022/12/03 03:41:17;;;;;;;;;;;;;;;;;;6232417;22;19954;-88
2022/12/03 03:43:43;;;;;;;;;;;;;;;;;;6204555;22;19929;-88
2022/12/03 03:46:09;;;;;;;;;;;;;;;;;;6207017;22;19966;-88
2022/12/03 03:48:35;;;;;;;;;;;;;;;;;;6230504;22;20420;-87
2022/12/03 03:51:02;;;;;;;;;;;;;;;;;;6232996;22;19992;-87
2022/12/03 03:53:28;;;;;;;;;;;;;;;;;;6207658;22;19922;-87
2022/12/03 03:55:54;;;;;;;;;;;;;;;;;;6232723;22;19919;-87
2022/12/03 03:58:20;;;;;;;;;;;;;;;;;;6207174;22;19925;-87
2022/12/03 04:00:46;;;;;;;;;;;;;;;;;;6204478;22;19915;-88
2022/12/03 04:03:12;;;;;;;;;;;;;;;;;;6231590;22;19922;-87
2022/12/03 04:05:38;;;;;;;;;;;;;;;;;;6230788;22;19927;-87
2022/12/03 04:08:04;;;;;;;;;;;;;;;;;;6208621;22;19920;-88
2022/12/03 04:13:14;;;;;;;;;;;;;;;;;;6232650;22;19997;-87
2022/12/03 04:15:40;;;;;;;;;;;;;;;;;;6204951;22;19961;-87
2022/12/03 04:22:38;;;;;;;;;;;;;;;;;;6231873;22;20001;-88
2022/12/03 04:23:37;;;;;;;;;;;;;;;;;;6230612;22;19923;-87
2022/12/03 04:28:48;;;;;;;;;;;;;;;;;;6233617;22;20212;-87
2022/12/03 04:36:43;;;;;;;;;;;;;;;;;;6231103;22;19962;-87
2022/12/03 04:39:09;;;;;;;;;;;;;;;;;;6227070;23;19924;-88
2022/12/03 04:41:35;;;;;;;;;;;;;;;;;;6226021;23;19915;-88
2022/12/03 04:46:46;;;;;;;;;;;;;;;;;;6224739;23;20408;-88
2022/12/03 04:49:12;;;;;;;;;;;;;;;;;;6229530;23;19923;-88
2022/12/03 04:51:38;;;;;;;;;;;;;;;;;;6227043;23;20314;-88
2022/12/03 04:54:04;;;;;;;;;;;;;;;;;;6228850;22;19920;-88
2022/12/03 04:56:30;;;;;;;;;;;;;;;;;;6227036;23;19969;-87
2022/12/03 04:58:56;;;;;;;;;;;;;;;;;;6225089;23;19974;-87
2022/12/03 05:01:21;;;;;;;;;;;;;;;;;;6227164;23;19942;-87
2022/12/03 05:03:47;;;;;;;;;;;;;;;;;;6225312;23;20584;-87
2022/12/03 05:06:13;;;;;;;;;;;;;;;;;;6227668;23;19972;-88
2022/12/03 05:08:39;;;;;;;;;;;;;;;;;;6224337;23;19923;-88
2022/12/03 05:11:05;;;;;;;;;;;;;;;;;;6228562;23;19926;-88
2022/12/03 05:13:31;;;;;;;;;;;;;;;;;;6224902;23;19955;-88
2022/12/03 05:15:57;;;;;;;;;;;;;;;;;;6227661;23;20190;-87
2022/12/03 05:18:23;;;;;;;;;;;;;;;;;;6228791;23;19951;-88
2022/12/03 05:20:49;;;;;;;;;;;;;;;;;;6225943;23;19919;-87
2022/12/03 05:23:15;;;;;;;;;;;;;;;;;;6232877;23;19930;-87
2022/12/03 05:25:41;;;;;;;;;;;;;;;;;;6225879;23;19963;-87
2022/12/03 05:28:07;;;;;;;;;;;;;;;;;;6226965;23;19919;-88
2022/12/03 05:30:33;;;;;;;;;;;;;;;;;;6224607;23;20001;-87
2022/12/03 05:32:59;;;;;;;;;;;;;;;;;;6231393;23;19958;-87
2022/12/03 05:35:25;;;;;;;;;;;;;;;;;;6230041;23;19919;-87
2022/12/03 05:37:50;;;;;;;;;;;;;;;;;;6226409;22;19923;-87
2022/12/03 05:40:16;;;;;;;;;;;;;;;;;;6209155;22;20360;-88
2022/12/03 05:43:00;;;;;;;;;;;;;;;;;;6230800;22;20320;-88
2022/12/03 05:45:26;;;;;;;;;;;;;;;;;;6234737;22;19993;-88
2022/12/03 05:47:52;;;;;;;;;;;;;;;;;;6231353;22;20024;-88
2022/12/03 05:50:18;;;;;;;;;;;;;;;;;;6235805;22;19962;-87
2022/12/03 05:52:43;;;;;;;;;;;;;;;;;;6206737;22;19925;-87
2022/12/03 05:55:10;;;;;;;;;;;;;;;;;;6207425;22;20350;-87
2022/12/03 05:57:36;;;;;;;;;;;;;;;;;;6207692;22;19929;-88
2022/12/03 06:00:02;;;;;;;;;;;;;;;;;;6209429;22;20006;-87
2022/12/03 06:02:28;;;;;;;;;;;;;;;;;;6232065;22;20431;-88
2022/12/03 06:04:54;;;;;;;;;;;;;;;;;;6233623;22;19989;-87
2022/12/03 06:07:20;;;;;;;;;;;;;;;;;;6208809;22;19922;-87
2022/12/03 06:09:46;;;;;;;;;;;;;;;;;;6234067;22;19915;-87
2022/12/03 06:12:12;;;;;;;;;;;;;;;;;;6209103;22;20386;-88
2022/12/03 06:14:38;;;;;;;;;;;;;;;;;;6234959;22;19965;-87
2022/12/03 06:17:04;;;;;;;;;;;;;;;;;;6238971;22;20345;-88
2022/12/03 06:19:30;;;;;;;;;;;;;;;;;;6211127;22;19915;-87
2022/12/03 06:21:56;;;;;;;;;;;;;;;;;;6239144;22;20363;-87
2022/12/03 06:24:22;;;;;;;;;;;;;;;;;;6212858;22;19956;-88
2022/12/03 06:26:48;;;;;;;;;;;;;;;;;;6235027;22;20301;-88
2022/12/03 06:29:13;;;;;;;;;;;;;;;;;;6213252;22;19973;-88
2022/12/03 06:31:39;;;;;;;;;;;;;;;;;;6205477;22;19919;-87
2022/12/03 06:34:05;;;;;;;;;;;;;;;;;;6234464;22;20027;-87
2022/12/03 06:36:31;;;;;;;;;;;;;;;;;;6204694;22;20310;-87
2022/12/03 06:38:57;;;;;;;;;;;;;;;;;;6234179;22;19970;-88
2022/12/03 06:41:23;;;;;;;;;;;;;;;;;;6234500;22;19915;-87
2022/12/03 06:43:49;;;;;;;;;;;;;;;;;;6231633;22;19923;-87
2022/12/03 06:46:15;;;;;;;;;;;;;;;;;;6209029;22;19970;-88
2022/12/03 06:48:41;;;;;;;;;;;;;;;;;;6205625;22;19926;-87
2022/12/03 06:51:07;;;;;;;;;;;;;;;;;;6207383;22;19926;-88
2022/12/03 06:53:33;;;;;;;;;;;;;;;;;;6231557;22;19974;-87
2022/12/03 06:55:59;;;;;;;;;;;;;;;;;;6209668;22;19919;-87
2022/12/03 06:58:25;;;;;;;;;;;;;;;;;;6207462;22;19919;-88
2022/12/03 07:00:51;;;;;;;;;;;;;;;;;;6231423;22;19919;-87
2022/12/03 07:03:17;;;;;;;;;;;;;;;;;;6231236;22;19940;-88
2022/12/03 07:05:42;;;;;;;;;;;;;;;;;;6231284;22;19927;-87
2022/12/03 07:08:08;;;;;;;;;;;;;;;;;;6209128;22;19919;-87
2022/12/03 07:10:34;;;;;;;;;;;;;;;;;;6231354;22;20302;-87
2022/12/03 07:13:01;;;;;;;;;;;;;;;;;;6233480;22;20324;-88
2022/12/03 07:15:30;;;;;;;;;;;;;;;;;;6208399;22;19946;-88
2022/12/03 07:17:55;;;;;;;;;;;;;;;;;;6206063;22;19972;-87
2022/12/03 07:20:24;;;;;;;;;;;;;;;;;;6233291;22;20295;-87
2022/12/03 07:22:50;;;;;;;;;;;;;;;;;;6231815;22;19919;-87
2022/12/03 07:25:16;;;;;;;;;;;;;;;;;;6207688;22;20340;-87
2022/12/03 07:27:42;;;;;;;;;;;;;;;;;;6231726;22;20352;-88
2022/12/03 07:30:08;;;;;;;;;;;;;;;;;;6209939;22;19926;-88
2022/12/03 07:32:34;;;;;;;;;;;;;;;;;;6205809;22;20333;-88
2022/12/03 07:35:01;;;;;;;;;;;;;;;;;;6207681;22;20256;-88
2022/12/03 07:37:30;;;;;;;;;;;;;;;;;;6232437;22;19954;-88
2022/12/03 07:39:56;;;;;;;;;;;;;;;;;;6231912;22;19923;-87
2022/12/03 07:42:22;;;;;;;;;;;;;;;;;;6207730;22;19988;-88
2022/12/03 07:44:48;;;;;;;;;;;;;;;;;;6230143;22;20272;-88
2022/12/03 07:47:14;;;;;;;;;;;;;;;;;;6235755;22;19919;-88
2022/12/03 07:49:40;;;;;;;;;;;;;;;;;;6205102;22;19923;-88
2022/12/03 07:52:06;;;;;;;;;;;;;;;;;;6232820;22;19966;-88
2022/12/03 07:54:32;;;;;;;;;;;;;;;;;;6230940;22;19926;-88
2022/12/03 07:56:58;;;;;;;;;;;;;;;;;;6207541;22;20016;-87
2022/12/03 07:59:24;;;;;;;;;;;;;;;;;;6232331;22;19955;-88
2022/12/03 08:01:50;;;;;;;;;;;;;;;;;;6203689;22;20335;-88
2022/12/03 08:04:17;;;;;;;;;;;;;;;;;;6227092;22;19954;-88
2022/12/03 08:06:43;;;;;;;;;;;;;;;;;;6227987;22;20006;-88
2022/12/03 08:09:09;;;;;;;;;;;;;;;;;;6205919;22;19961;-87
2022/12/03 08:11:35;;;;;;;;;;;;;;;;;;6228194;22;20009;-88
2022/12/03 08:14:01;;;;;;;;;;;;;;;;;;6206471;22;19919;-88
2022/12/03 08:16:30;;;;;;;;;;;;;;;;;;6230774;22;19951;-88
2022/12/03 08:18:56;;;;;;;;;;;;;;;;;;6231397;22;19926;-87
2022/12/03 08:21:22;;;;;;;;;;;;;;;;;;6206481;22;20115;-87
2022/12/03 08:23:48;;;;;;;;;;;;;;;;;;6204632;22;20863;-87
2022/12/03 08:26:14;;;;;;;;;;;;;;;;;;6235241;22;20225;-88
2022/12/03 08:28:40;;;;;;;;;;;;;;;;;;6229526;22;20293;-88
2022/12/03 08:31:06;;;;;;;;;;;;;;;;;;6205315;22;20248;-87
2022/12/03 08:33:35;;;;;;;;;;;;;;;;;;6228442;22;20222;-88
2022/12/03 08:36:01;;;;;;;;;;;;;;;;;;6206183;22;20237;-89
2022/12/03 08:38:30;;;;;;;;;;;;;;;;;;6230999;22;19927;-89
2022/12/03 08:40:56;;;;;;;;;;;;;;;;;;6206713;22;19919;-89
2022/12/03 08:43:22;;;;;;;;;;;;;;;;;;6228756;22;19919;-89
2022/12/03 08:45:48;;;;;;;;;;;;;;;;;;6202650;22;20424;-88
2022/12/03 08:48:14;;;;;;;;;;;;;;;;;;6232836;22;19920;-89
2022/12/03 08:50:40;;;;;;;;;;;;;;;;;;6203285;22;20282;-89
2022/12/03 08:53:06;;;;;;;;;;;;;;;;;;6206502;22;19919;-89
2022/12/03 08:55:32;;;;;;;;;;;;;;;;;;6226064;22;20310;-88
2022/12/03 08:57:58;;;;;;;;;;;;;;;;;;6230449;22;19925;-88
2022/12/03 09:00:24;;;;;;;;;;;;;;;;;;6207264;22;20017;-89
2022/12/03 09:02:50;;;;;;;;;;;;;;;;;;6201834;22;20307;-89
2022/12/03 09:05:16;;;;;;;;;;;;;;;;;;6202553;22;19930;-89
2022/12/03 09:07:42;;;;;;;;;;;;;;;;;;6229946;22;19951;-89
2022/12/03 09:10:08;;;;;;;;;;;;;;;;;;6232850;22;19919;-89
2022/12/03 09:12:35;;;;;;;;;;;;;;;;;;6207389;22;19919;-89
2022/12/03 09:15:03;;;;;;;;;;;;;;;;;;6237298;22;20299;-89
2022/12/03 09:17:32;;;;;;;;;;;;;;;;;;6205230;22;19923;-88
2022/12/03 09:19:58;;;;;;;;;;;;;;;;;;6230886;22;19976;-89
2022/12/03 09:22:24;;;;;;;;;;;;;;;;;;6208244;22;20026;-89
2022/12/03 09:24:50;;;;;;;;;;;;;;;;;;6231479;22;19919;-87
2022/12/03 09:27:16;;;;;;;;;;;;;;;;;;6233501;22;20334;-87
2022/12/03 09:29:42;;;;;;;;;;;;;;;;;;6204158;22;19919;-87
2022/12/03 09:32:08;;;;;;;;;;;;;;;;;;6206242;22;19965;-87
2022/12/03 09:34:33;;;;;;;;;;;;;;;;;;6202841;22;19942;-87
2022/12/03 09:36:59;;;;;;;;;;;;;;;;;;6231468;22;19925;-87
2022/12/03 09:39:25;;;;;;;;;;;;;;;;;;6233811;22;19969;-87
2022/12/03 09:41:51;;;;;;;;;;;;;;;;;;6230257;22;19925;-87
2022/12/03 09:44:17;;;;;;;;;;;;;;;;;;6231428;22;19976;-88
2022/12/03 09:46:43;;;;;;;;;;;;;;;;;;6227397;22;20255;-87
2022/12/03 09:49:09;;;;;;;;;;;;;;;;;;6231089;22;20280;-88
2022/12/03 09:51:35;;;;;;;;;;;;;;;;;;6227087;22;19923;-89
2022/12/03 09:54:01;;;;;;;;;;;;;;;;;;6203269;22;19919;-89
2022/12/03 09:56:28;;;;;;;;;;;;;;;;;;6229566;22;19919;-88
2022/12/03 09:58:54;;;;;;;;;;;;;;;;;;6227216;22;20691;-88
2022/12/03 10:01:35;;;;;;;;;;;;;;;;;;6164078;22;20118;-89
2022/12/03 10:04:01;;;;;;;;;;;;;;;;;;6231617;22;20344;-88
2022/12/03 10:06:30;;;;;;;;;;;;;;;;;;6211404;22;19928;-89
2022/12/03 10:08:58;;;;;;;;;;;;;;;;;;6236540;22;19926;-90
2022/12/03 10:11:24;;;;;;;;;;;;;;;;;;6237203;22;20338;-89
2022/12/03 10:13:50;;;;;;;;;;;;;;;;;;6202867;22;20783;-88
2022/12/03 10:16:28;;;;;;;;;;;;;;;;;;6234049;22;19919;-88
2022/12/03 10:18:59;;;;;;;;;;;;;;;;;;6210951;22;19935;-88
2022/12/03 10:21:26;;;;;;;;;;;;;;;;;;6211267;22;20264;-88
2022/12/03 10:23:52;;;;;;;;;;;;;;;;;;6210257;22;20227;-88
2022/12/03 10:26:18;;;;;;;;;;;;;;;;;;6209185;22;19930;-89
2022/12/03 10:28:45;;;;;;;;;;;;;;;;;;6233232;22;19989;-89
2022/12/03 10:31:11;;;;;;;;;;;;;;;;;;6234773;22;20335;-89
2022/12/03 10:33:37;;;;;;;;;;;;;;;;;;6233275;22;20365;-87
2022/12/03 10:36:03;;;;;;;;;;;;;;;;;;6256157;22;20348;-88
2022/12/03 10:38:29;;;;;;;;;;;;;;;;;;6226672;22;19954;-88
2022/12/03 10:40:55;;;;;;;;;;;;;;;;;;6202822;22;20252;-88
2022/12/03 10:43:21;;;;;;;;;;;;;;;;;;6199875;22;19919;-88
2022/12/03 10:45:47;;;;;;;;;;;;;;;;;;6225290;22;19923;-89
2022/12/03 10:48:15;;;;;;;;;;;;;;;;;;6202752;22;19942;-89
2022/12/03 10:50:41;;;;;;;;;;;;;;;;;;6201919;22;19923;-89
2022/12/03 10:53:07;;;;;;;;;;;;;;;;;;6211929;22;19941;-90
2022/12/03 10:55:34;;;;;;;;;;;;;;;;;;6208882;22;20662;-89
2022/12/03 10:58:00;;;;;;;;;;;;;;;;;;6234943;22;19972;-89
2022/12/03 11:00:26;;;;;;;;;;;;;;;;;;6213737;22;19990;-89
2022/12/03 11:02:51;;;;;;;;;;;;;;;;;;6205475;22;19919;-89
2022/12/03 11:05:17;;;;;;;;;;;;;;;;;;6214106;22;19954;-89
2022/12/03 11:07:43;;;;;;;;;;;;;;;;;;6212610;22;19951;-89
2022/12/03 11:10:09;;;;;;;;;;;;;;;;;;6213569;22;19919;-89
2022/12/03 11:12:35;;;;;;;;;;;;;;;;;;6235637;22;19923;-90
2022/12/03 11:15:07;;;;;;;;;;;;;;;;;;6212320;22;20022;-90
2022/12/03 11:17:33;;;;;;;;;;;;;;;;;;6210421;22;19919;-90
2022/12/03 11:19:59;;;;;;;;;;;;;;;;;;6239227;22;19969;-90
2022/12/03 11:22:25;;;;;;;;;;;;;;;;;;6213437;22;20336;-90
2022/12/03 11:24:51;;;;;;;;;;;;;;;;;;6210591;22;20252;-89
2022/12/03 11:27:17;;;;;;;;;;;;;;;;;;6237241;22;19919;-90
2022/12/03 11:29:43;;;;;;;;;;;;;;;;;;6210939;22;19919;-90
2022/12/03 11:32:09;;;;;;;;;;;;;;;;;;6229551;22;19968;-90
2022/12/03 11:34:35;;;;;;;;;;;;;;;;;;6228876;22;19923;-88
2022/12/03 11:37:01;;;;;;;;;;;;;;;;;;6203285;22;19922;-89
2022/12/03 11:39:30;;;;;;;;;;;;;;;;;;6203480;22;19924;-89
2022/12/03 11:41:56;;;;;;;;;;;;;;;;;;6208291;22;19926;-89
2022/12/03 11:44:22;;;;;;;;;;;;;;;;;;6207467;22;19927;-90
2022/12/03 11:46:48;;;;;;;;;;;;;;;;;;6226016;22;20793;-88
2022/12/03 11:49:16;;;;;;;;;;;;;;;;;;6230925;22;19920;-90
2022/12/03 11:51:42;;;;;;;;;;;;;;;;;;6204014;22;19923;-89
2022/12/03 11:54:08;;;;;;;;;;;;;;;;;;6211085;22;19951;-89
2022/12/03 11:56:34;;;;;;;;;;;;;;;;;;6235019;22;20344;-89
2022/12/03 11:59:00;;;;;;;;;;;;;;;;;;6212331;22;19925;-89
2022/12/03 12:01:26;;;;;;;;;;;;;;;;;;6236186;22;20085;-89
2022/12/03 12:03:52;;;;;;;;;;;;;;;;;;6236135;22;19930;-89
2022/12/03 12:06:18;;;;;;;;;;;;;;;;;;6214131;22;20351;-89
2022/12/03 12:08:44;;;;;;;;;;;;;;;;;;6212938;22;19958;-89
2022/12/03 12:11:10;;;;;;;;;;;;;;;;;;6214623;22;19919;-89
2022/12/03 12:13:36;;;;;;;;;;;;;;;;;;6238157;22;19938;-89
2022/12/03 12:16:03;;;;;;;;;;;;;;;;;;6211148;22;20082;-89
2022/12/03 12:18:29;;;;;;;;;;;;;;;;;;6211326;22;19986;-89
2022/12/03 12:20:55;;;;;;;;;;;;;;;;;;6239566;22;19958;-89
2022/12/03 12:23:24;;;;;;;;;;;;;;;;;;6214643;22;19915;-89
2022/12/03 12:25:50;;;;;;;;;;;;;;;;;;6237106;22;19923;-89
2022/12/03 12:28:16;;;;;;;;;;;;;;;;;;6239233;22;19938;-89
2022/12/03 12:30:42;;;;;;;;;;;;;;;;;;6235255;22;19919;-90
2022/12/03 12:33:08;;;;;;;;;;;;;;;;;;6234863;22;19915;-89
2022/12/03 12:35:35;;;;;;;;;;;;;;;;;;6235937;22;20316;-89
2022/12/03 12:38:01;;;;;;;;;;;;;;;;;;6237890;22;20248;-89
2022/12/03 12:40:27;;;;;;;;;;;;;;;;;;6207560;23;19919;-89
2022/12/03 12:42:53;;;;;;;;;;;;;;;;;;6183736;23;19915;-89
2022/12/03 12:45:19;;;;;;;;;;;;;;;;;;6208093;23;19926;-89
2022/12/03 12:47:46;;;;;;;;;;;;;;;;;;6182159;23;20643;-89
2022/12/03 12:50:11;;;;;;;;;;;;;;;;;;6210046;23;19920;-90
2022/12/03 12:52:37;;;;;;;;;;;;;;;;;;6206927;23;20244;-89
2022/12/03 12:55:03;;;;;;;;;;;;;;;;;;6185797;23;19999;-89
2022/12/03 12:57:29;;;;;;;;;;;;;;;;;;6181435;23;19923;-89
2022/12/03 12:59:55;;;;;;;;;;;;;;;;;;6183555;23;19922;-89
2022/12/03 13:02:21;;;;;;;;;;;;;;;;;;6209463;23;19915;-90
2022/12/03 13:04:47;;;;;;;;;;;;;;;;;;6182539;23;19970;-89
2022/12/03 13:07:13;;;;;;;;;;;;;;;;;;6183969;23;19994;-89
2022/12/03 13:09:39;;;;;;;;;;;;;;;;;;6183851;23;20345;-89
2022/12/03 13:12:06;;;;;;;;;;;;;;;;;;6183871;23;19916;-89
2022/12/03 13:14:32;;;;;;;;;;;;;;;;;;6182541;23;20242;-89
2022/12/03 13:16:58;;;;;;;;;;;;;;;;;;6210279;23;19921;-89
2022/12/03 13:19:24;;;;;;;;;;;;;;;;;;6211516;23;19924;-89
2022/12/03 13:21:50;;;;;;;;;;;;;;;;;;6182686;23;19915;-90
2022/12/03 13:24:16;;;;;;;;;;;;;;;;;;6186745;23;19916;-89
2022/12/03 13:26:41;;;;;;;;;;;;;;;;;;6180316;23;19931;-89
2022/12/03 13:29:07;;;;;;;;;;;;;;;;;;6184310;23;19951;-89
2022/12/03 13:31:35;;;;;;;;;;;;;;;;;;6207961;23;19915;-89
2022/12/03 13:34:01;;;;;;;;;;;;;;;;;;6186437;23;19916;-89
2022/12/03 13:36:27;;;;;;;;;;;;;;;;;;6210040;23;19928;-89
2022/12/03 13:38:53;;;;;;;;;;;;;;;;;;6185402;23;19930;-89
2022/12/03 13:44:04;;;;;;;;;;;;;;;;;;6206710;23;20356;-89
2022/12/03 13:46:30;;;;;;;;;;;;;;;;;;6208945;23;19923;-89
2022/12/03 13:48:56;;;;;;;;;;;;;;;;;;6210232;23;20285;-90
2022/12/03 13:51:22;;;;;;;;;;;;;;;;;;6210997;23;20518;-89
2022/12/03 13:53:48;;;;;;;;;;;;;;;;;;6208289;22;19919;-89
2022/12/03 13:56:14;;;;;;;;;;;;;;;;;;6207657;23;19916;-89
2022/12/03 13:58:40;;;;;;;;;;;;;;;;;;6206161;23;19941;-89
2022/12/03 14:01:06;;;;;;;;;;;;;;;;;;6186330;23;19938;-90
2022/12/03 14:03:32;;;;;;;;;;;;;;;;;;6206062;23;19974;-89
2022/12/03 14:05:58;;;;;;;;;;;;;;;;;;6207788;23;19923;-89
2022/12/03 14:08:24;;;;;;;;;;;;;;;;;;6210175;23;19919;-89
2022/12/03 14:10:50;;;;;;;;;;;;;;;;;;6182471;23;19961;-89
2022/12/03 14:13:16;;;;;;;;;;;;;;;;;;6181498;23;19973;-89
2022/12/03 14:15:42;;;;;;;;;;;;;;;;;;6180778;23;19926;-89
2022/12/03 14:18:08;;;;;;;;;;;;;;;;;;6210606;23;19922;-89
2022/12/03 14:20:35;;;;;;;;;;;;;;;;;;6207154;23;20357;-89
2022/12/03 14:23:01;;;;;;;;;;;;;;;;;;6184171;23;19916;-89
2022/12/03 14:25:27;;;;;;;;;;;;;;;;;;6210335;23;19927;-89
2022/12/03 14:27:56;;;;;;;;;;;;;;;;;;6183633;23;19922;-89
2022/12/03 14:30:22;;;;;;;;;;;;;;;;;;6207444;23;19920;-89
2022/12/03 14:32:48;;;;;;;;;;;;;;;;;;6182025;23;20396;-89
2022/12/03 14:35:13;;;;;;;;;;;;;;;;;;6210657;23;19922;-90
2022/12/03 14:37:39;;;;;;;;;;;;;;;;;;6206346;23;20387;-89
2022/12/03 14:40:07;;;;;;;;;;;;;;;;;;6235449;22;20369;-89
2022/12/03 14:42:33;;;;;;;;;;;;;;;;;;6237003;22;19919;-89
2022/12/03 14:44:59;;;;;;;;;;;;;;;;;;6240111;22;19926;-89
2022/12/03 14:47:25;;;;;;;;;;;;;;;;;;6214376;22;19919;-89
2022/12/03 14:49:51;;;;;;;;;;;;;;;;;;6239510;22;19915;-89
2022/12/03 14:52:17;;;;;;;;;;;;;;;;;;6239527;22;19998;-89
2022/12/03 14:54:43;;;;;;;;;;;;;;;;;;6213272;22;19919;-89
2022/12/03 14:57:10;;;;;;;;;;;;;;;;;;6239198;22;20328;-89
2022/12/03 14:59:36;;;;;;;;;;;;;;;;;;6209570;22;19970;-89
2022/12/03 15:02:02;;;;;;;;;;;;;;;;;;6214818;22;19946;-89
2022/12/03 15:04:28;;;;;;;;;;;;;;;;;;6238578;22;19922;-89
2022/12/03 15:06:53;;;;;;;;;;;;;;;;;;6215559;22;19923;-89
2022/12/03 15:09:20;;;;;;;;;;;;;;;;;;6240839;22;19919;-89
2022/12/03 15:11:45;;;;;;;;;;;;;;;;;;6237133;22;19926;-89
2022/12/03 15:14:11;;;;;;;;;;;;;;;;;;6213586;22;19915;-89
2022/12/03 15:16:37;;;;;;;;;;;;;;;;;;6228538;22;19990;-89
2022/12/03 15:19:03;;;;;;;;;;;;;;;;;;6209052;22;19919;-88
2022/12/03 15:21:31;;;;;;;;;;;;;;;;;;6205119;22;20369;-89
2022/12/03 15:23:57;;;;;;;;;;;;;;;;;;6206147;22;19926;-89
2022/12/03 15:26:23;;;;;;;;;;;;;;;;;;6204781;22;19923;-89
2022/12/03 15:28:49;;;;;;;;;;;;;;;;;;6203009;22;20349;-89
2022/12/03 15:31:15;;;;;;;;;;;;;;;;;;6232392;22;19923;-89
2022/12/03 15:33:41;;;;;;;;;;;;;;;;;;6209061;22;19919;-89
2022/12/03 15:36:07;;;;;;;;;;;;;;;;;;6211282;22;20328;-89
2022/12/03 15:38:33;;;;;;;;;;;;;;;;;;6259806;22;19931;-90
2022/12/03 15:41:20;;;;;;;;;;;;;;;;;;6200496;22;19990;-89
2022/12/03 15:43:45;;;;;;;;;;;;;;;;;;6228467;22;20302;-87
2022/12/03 15:46:11;;;;;;;;;;;;;;;;;;6205385;22;19923;-87
2022/12/03 15:48:37;;;;;;;;;;;;;;;;;;6231510;22;19926;-88
2022/12/03 15:51:03;;;;;;;;;;;;;;;;;;6229424;22;19930;-88
2022/12/03 15:53:29;;;;;;;;;;;;;;;;;;6227997;22;19926;-88
2022/12/03 15:55:55;;;;;;;;;;;;;;;;;;6227780;22;20341;-88
2022/12/03 15:58:24;;;;;;;;;;;;;;;;;;6201702;22;19919;-88
2022/12/03 16:00:50;;;;;;;;;;;;;;;;;;6195886;22;19919;-88
2022/12/03 16:03:18;;;;;;;;;;;;;;;;;;6200053;22;19945;-88
2022/12/03 16:05:44;;;;;;;;;;;;;;;;;;6200240;22;19923;-88
2022/12/03 16:08:10;;;;;;;;;;;;;;;;;;6204399;22;19976;-88
2022/12/03 16:10:36;;;;;;;;;;;;;;;;;;6223683;22;19997;-88
2022/12/03 16:13:02;;;;;;;;;;;;;;;;;;6200223;22;19945;-88
2022/12/03 16:15:28;;;;;;;;;;;;;;;;;;6201313;22;19919;-88
2022/12/03 16:17:54;;;;;;;;;;;;;;;;;;6226281;22;19930;-88
2022/12/03 16:20:20;;;;;;;;;;;;;;;;;;6227347;22;20337;-87
2022/12/03 16:22:46;;;;;;;;;;;;;;;;;;6227358;22;19919;-88
2022/12/03 16:25:12;;;;;;;;;;;;;;;;;;6200020;22;19931;-88
2022/12/03 16:27:38;;;;;;;;;;;;;;;;;;6198646;22;19919;-88
2022/12/03 16:33:12;;;;;;;;;;;;;;;;;;6223028;22;20573;-88
2022/12/03 16:35:51;;;;;;;;;;;;;;;;;;6187961;23;19996;-88
2022/12/03 16:38:31;;;;;;;;;;;;;;;;;;6168117;23;20364;-87
2022/12/03 16:41:16;;;;;;;;;;;;;;;;;;6113152;23;19928;-88
2022/12/03 16:46:31;;;;;;;;;;;;;;;;;;6085424;23;19920;-88
2022/12/03 16:51:59;;;;;;;;;;;;;;;;;;6163668;23;19924;-88
2022/12/03 16:54:43;;;;;;;;;;;;;;;;;;6130511;23;19942;-87
2022/12/03 16:57:33;;;;;;;;;;;;;;;;;;6136205;23;19924;-88
2022/12/03 17:02:45;;;;;;;;;;;;;;;;;;5987058;23;20488;-87
2022/12/03 17:05:23;;;;;;;;;;;;;;;;;;5962849;23;19980;-88
2022/12/03 17:22:22;;;;;;;;;;;;;;;;;;;;;
2022/12/03 17:27:50;;;;;;;;;;;;;;;;;;;;;
2022/12/03 17:36:11;;;;;;;;;;;;;;;;;;5964865;23;19922;-88